Time;durP1;ratioP1;P1;durP2;ratioP2;P2;SDS_P1;SDS_P2;PMS_P1;PMS_P2;Temp;Humidity;BMP_temperature;BMP_pressure;BME280_temperature;BME280_humidity;BME280_pressure;Samples;Min_cycle;Max_cycle;Signal;HPM_P1;HPM_P2
2021/05/21 00:01:51;;;;;;;7.83;3.47;;;;;;;10.73;79.43;99037.56;1700403;84;21079;-62
2021/05/21 00:04:17;;;;;;;;;;;;;;;10.76;79.09;99038.34;1709902;84;21048;-61
2021/05/21 00:06:44;;;;;;;7.55;3.10;;;;;;;10.84;78.59;99043.94;1683143;84;20233;-62
2021/05/21 00:09:11;;;;;;;5.22;2.00;;;;;;;10.85;77.99;99033.32;1692441;84;21936;-61
2021/05/21 00:11:37;;;;;;;7.42;2.65;;;;;;;10.85;77.04;99038.77;1649478;86;21092;-61
2021/05/21 00:14:05;;;;;;;4.05;1.70;;;;;;;10.93;76.81;99050.94;1675271;84;21055;-61
2021/05/21 00:16:32;;;;;;;3.50;2.10;;;;;;;11.05;75.84;99044.54;1649461;84;21079;-61
2021/05/21 00:18:58;;;;;;;2.25;1.35;;;;;;;11.13;75.58;99045.23;1672259;84;21709;-61
2021/05/21 00:21:24;;;;;;;4.90;1.50;;;;;;;11.13;75.17;99047.95;1654361;86;21111;-61
2021/05/21 00:23:50;;;;;;;1.92;1.17;;;;;;;11.15;74.82;99047.67;1687581;84;21039;-61
2021/05/21 00:26:17;;;;;;;2.50;1.15;;;;;;;11.25;74.29;99051.08;1682297;84;21035;-62
2021/05/21 00:28:44;;;;;;;2.83;1.25;;;;;;;11.33;73.82;99055.88;1680535;84;21100;-61
2021/05/21 00:31:11;;;;;;;2.58;1.37;;;;;;;11.32;73.38;99051.53;1668538;84;21519;-61
2021/05/21 00:33:37;;;;;;;4.00;1.25;;;;;;;11.32;73.33;99062.43;1656268;84;21078;-62
2021/05/21 00:36:04;;;;;;;5.47;1.45;;;;;;;11.36;73.18;99059.38;1654558;86;20998;-61
2021/05/21 00:38:31;;;;;;;2.55;1.25;;;;;;;11.47;72.97;99058.69;1673209;84;21057;-61
2021/05/21 00:41:01;;;;;;;4.60;1.40;;;;;;;11.48;72.72;99060.29;1711944;84;21021;-61
2021/05/21 00:43:27;;;;;;;4.08;1.37;;;;;;;11.43;72.75;99063.10;1677077;85;21061;-61
2021/05/21 00:45:54;;;;;;;2.50;1.37;;;;;;;11.47;72.64;99062.78;1696770;84;21029;-62
2021/05/21 00:48:21;;;;;;;3.83;1.60;;;;;;;11.54;72.40;99073.31;1708043;84;21057;-62
2021/05/21 00:50:50;;;;;;;5.20;1.07;;;;;;;11.55;72.07;99069.49;1669894;84;21560;-62
2021/05/21 00:53:17;;;;;;;2.37;1.22;;;;;;;11.52;72.08;99072.78;1678913;84;21162;-61
2021/05/21 00:55:45;;;;;;;4.55;1.20;;;;;;;11.50;72.03;99079.91;1702097;84;21021;-62
2021/05/21 00:58:12;;;;;;;2.50;1.37;;;;;;;11.53;71.84;99075.22;1711747;84;21076;-61
2021/05/21 01:00:38;;;;;;;;;;;;;;;11.60;71.61;99079.76;1706471;84;21001;-62
2021/05/21 01:03:05;;;;;;;2.70;1.25;;;;;;;11.58;71.53;99076.53;1711714;84;20485;-62
2021/05/21 01:05:32;;;;;;;2.50;1.20;;;;;;;11.45;71.85;99072.59;1711935;84;21017;-62
2021/05/21 01:07:58;;;;;;;6.00;1.45;;;;;;;11.40;72.00;99065.88;1708971;84;21650;-62
2021/05/21 01:10:26;;;;;;;5.53;1.72;;;;;;;11.44;71.86;99069.61;1685051;84;21013;-62
2021/05/21 01:12:54;;;;;;;3.72;1.20;;;;;;;11.45;71.76;99076.69;1655725;85;21089;-62
2021/05/21 01:15:22;;;;;;;4.03;1.75;;;;;;;11.40;71.92;99071.33;1715379;83;21049;-61
2021/05/21 01:17:49;;;;;;;2.12;1.20;;;;;;;11.35;72.06;99078.73;1700369;83;21104;-62
2021/05/21 01:20:16;;;;;;;3.37;1.35;;;;;;;11.35;72.10;99077.38;1693671;85;21032;-62
2021/05/21 01:22:42;;;;;;;;;;;;;;;11.39;71.99;99077.05;1662441;83;21076;-61
2021/05/21 01:25:09;;;;;;;3.20;1.20;;;;;;;11.35;71.96;99082.28;1701527;83;20168;-62
2021/05/21 01:27:35;;;;;;;4.05;1.40;;;;;;;11.21;72.35;99082.73;1672371;83;21131;-61
2021/05/21 01:30:05;;;;;;;3.10;1.22;;;;;;;11.14;72.54;99087.72;1694986;83;21020;-62
2021/05/21 01:32:32;;;;;;;2.40;1.47;;;;;;;11.12;72.61;99083.67;1639121;86;21174;-62
2021/05/21 01:34:59;;;;;;;3.33;1.22;;;;;;;11.13;72.53;99089.36;1717323;83;20985;-62
2021/05/21 01:37:25;;;;;;;5.15;1.40;;;;;;;11.12;72.57;99089.94;1693764;83;21072;-62
2021/05/21 01:39:52;;;;;;;2.60;1.47;;;;;;;11.05;72.71;99090.02;1719411;83;21029;-62
2021/05/21 01:42:19;;;;;;;3.87;1.60;;;;;;;10.92;73.30;99095.59;1722116;83;21662;-62
2021/05/21 01:44:45;;;;;;;3.02;1.52;;;;;;;10.87;73.60;99099.75;1708687;82;21044;-61
2021/05/21 01:47:12;;;;;;;3.42;1.35;;;;;;;10.87;73.77;99104.66;1721334;83;21120;-62
2021/05/21 01:49:40;;;;;;;4.40;1.32;;;;;;;10.86;74.02;99111.73;1711950;83;21048;-62
2021/05/21 01:52:07;;;;;;;3.67;1.30;;;;;;;10.77;74.32;99108.03;1717527;83;21693;-62
2021/05/21 01:54:33;;;;;;;4.25;1.00;;;;;;;10.65;74.86;99115.22;1718665;83;21041;-62
2021/05/21 01:57:01;;;;;;;2.33;1.25;;;;;;;10.60;75.00;99114.44;1712765;83;21108;-62
2021/05/21 01:59:27;;;;;;;3.72;1.10;;;;;;;10.60;74.92;99113.89;1698295;83;21048;-61
2021/05/21 02:01:55;;;;;;;2.47;1.25;;;;;;;10.61;74.74;99118.80;1712354;83;21044;-61
2021/05/21 02:04:33;;;;;;;5.35;1.20;;;;;;;10.59;74.69;99120.45;1711307;83;21056;-61
2021/05/21 02:06:59;;;;;;;1.82;1.02;;;;;;;10.55;74.69;99123.48;1721109;83;21100;-61
2021/05/21 02:09:26;;;;;;;3.15;1.12;;;;;;;10.52;74.80;99123.25;1706700;83;21063;-62
2021/05/21 02:11:52;;;;;;;5.30;1.00;;;;;;;10.51;74.73;99122.97;1700658;83;21590;-62
2021/05/21 02:14:19;;;;;;;3.55;0.80;;;;;;;10.54;74.78;99121.03;1695448;83;21113;-62
2021/05/21 02:16:45;;;;;;;;;;;;;;;10.53;74.71;99117.50;1658305;85;21076;-62
2021/05/21 02:19:11;;;;;;;6.12;1.02;;;;;;;10.49;74.88;99129.50;1636329;86;20183;-62
2021/05/21 02:21:40;;;;;;;3.42;1.10;;;;;;;10.36;75.12;99123.91;1693457;83;21618;-62
2021/05/21 02:24:08;;;;;;;4.08;1.20;;;;;;;10.37;75.07;99133.16;1720814;83;21056;-62
2021/05/21 02:26:34;;;;;;;2.22;1.17;;;;;;;10.44;74.90;99132.83;1690127;84;21083;-62
2021/05/21 02:29:01;;;;;;;5.10;1.17;;;;;;;10.48;74.73;99127.91;1695665;83;21371;-62
2021/05/21 02:31:28;;;;;;;3.85;1.42;;;;;;;10.47;74.76;99134.98;1693558;83;21077;-62
2021/05/21 02:33:54;;;;;;;2.70;1.10;;;;;;;10.45;74.78;99135.83;1706842;83;21574;-62
2021/05/21 02:36:20;;;;;;;3.02;0.90;;;;;;;10.48;74.72;99131.98;1717467;83;21111;-62
2021/05/21 02:38:48;;;;;;;2.22;1.10;;;;;;;10.55;74.72;99137.09;1722329;83;21056;-62
2021/05/21 02:41:15;;;;;;;2.10;1.30;;;;;;;10.56;74.87;99132.47;1706709;83;21559;-62
2021/05/21 02:43:41;;;;;;;3.02;1.10;;;;;;;10.49;75.04;99134.95;1707075;83;21595;-61
2021/05/21 02:46:08;;;;;;;2.75;1.20;;;;;;;10.48;75.28;99133.34;1709114;82;21048;-62
2021/05/21 02:48:34;;;;;;;3.77;1.02;;;;;;;10.52;75.33;99139.58;1719802;83;21630;-61
2021/05/21 02:51:02;;;;;;;3.77;1.27;;;;;;;10.59;75.25;99136.79;1699864;83;20993;-61
2021/05/21 02:53:30;;;;;;;3.37;1.25;;;;;;;10.63;75.20;99143.83;1633722;85;21115;-61
2021/05/21 02:55:57;;;;;;;2.00;1.22;;;;;;;10.61;75.31;99145.47;1722040;83;21001;-62
2021/05/21 02:58:23;;;;;;;3.95;1.42;;;;;;;10.64;75.36;99146.25;1703792;83;21076;-62
2021/05/21 03:00:50;;;;;;;3.02;1.42;;;;;;;10.73;75.14;99145.09;1700095;83;21000;-62
2021/05/21 03:03:16;;;;;;;2.95;1.52;;;;;;;10.85;75.07;99155.03;1702021;83;21104;-62
2021/05/21 03:05:43;;;;;;;2.08;1.20;;;;;;;10.90;74.86;99160.44;1720587;83;21013;-62
2021/05/21 03:08:11;;;;;;;4.87;1.27;;;;;;;10.97;74.76;99162.28;1715271;83;21465;-62
2021/05/21 03:10:37;;;;;;;3.02;1.55;;;;;;;11.09;74.15;99166.76;1711836;83;20997;-62
2021/05/21 03:13:04;;;;;;;2.42;1.65;;;;;;;11.20;73.73;99166.09;1705581;83;21127;-62
2021/05/21 03:15:31;;;;;;;3.22;1.35;;;;;;;11.25;73.43;99165.51;1704627;83;21520;-62
2021/05/21 03:17:59;;;;;;;3.05;1.07;;;;;;;11.34;73.06;99167.84;1720998;83;21060;-61
2021/05/21 03:20:26;;;;;;;2.17;1.10;;;;;;;11.45;72.29;99163.08;1703718;83;21044;-62
2021/05/21 03:22:52;;;;;;;1.75;1.05;;;;;;;11.62;71.92;99162.05;1719189;83;21068;-61
2021/05/21 03:25:21;;;;;;;2.30;1.10;;;;;;;11.77;71.53;99163.80;1722381;83;21023;-62
2021/05/21 03:27:47;;;;;;;2.52;0.95;;;;;;;11.87;71.05;99158.20;1716927;83;21100;-62
2021/05/21 03:30:14;;;;;;;4.75;1.40;;;;;;;11.89;70.91;99159.55;1710047;83;21032;-62
2021/05/21 03:32:41;;;;;;;2.08;1.00;;;;;;;11.92;70.84;99162.23;1676429;83;21603;-62
2021/05/21 03:35:10;;;;;;;4.83;1.20;;;;;;;11.91;70.25;99166.06;1696460;83;21056;-62
2021/05/21 03:37:36;;;;;;;2.45;1.25;;;;;;;11.82;70.55;99169.20;1683481;84;21531;-62
2021/05/21 03:40:48;;;;;;;2.30;1.10;;;;;;;11.81;71.07;99165.66;1757129;79;23421;-63
2021/05/21 03:43:15;;;;;;;3.67;1.30;;;;;;;11.87;71.11;99171.29;1723054;82;21068;-62
2021/05/21 03:45:42;;;;;;;3.22;1.40;;;;;;;12.00;70.36;99175.22;1713434;83;21574;-63
2021/05/21 03:48:08;;;;;;;2.65;1.00;;;;;;;11.98;69.84;99178.23;1699029;82;21629;-63
2021/05/21 03:50:34;;;;;;;2.58;1.42;;;;;;;11.96;69.94;99181.00;1671863;83;21084;-63
2021/05/21 03:53:00;;;;;;;;;;;;;;;12.04;70.30;99189.90;1652886;87;21088;-63
2021/05/21 03:55:27;;;;;;;4.22;1.30;;;;;;;12.21;69.60;99185.28;1669633;86;20217;-61
2021/05/21 03:57:55;;;;;;;3.05;1.45;;;;;;;12.27;69.38;99182.17;1670270;83;21120;-62
2021/05/21 04:00:22;;;;;;;3.40;1.60;;;;;;;12.35;68.79;99187.53;1705888;83;21104;-63
2021/05/21 04:02:50;;;;;;;1.95;1.40;;;;;;;12.47;68.86;99191.95;1646648;87;21623;-63
2021/05/21 04:05:17;;;;;;;3.52;1.10;;;;;;;12.61;68.02;99192.03;1679099;85;21127;-62
2021/05/21 04:07:45;;;;;;;4.72;1.32;;;;;;;12.70;67.84;99190.23;1651127;84;21444;-62
2021/05/21 04:10:11;;;;;;;2.45;1.52;;;;;;;12.77;67.12;99201.03;1648813;87;21067;-62
2021/05/21 04:12:38;;;;;;;;;;;;;;;12.80;67.25;99205.89;1670799;85;21074;-61
2021/05/21 04:15:06;;;;;;;2.67;1.30;;;;;;;12.95;67.10;99204.83;1644451;87;20533;-60
2021/05/21 04:17:34;;;;;;;2.35;1.50;;;;;;;13.20;66.19;99200.86;1660049;85;21060;-60
2021/05/21 04:20:01;;;;;;;;;;;;;;;13.29;65.77;99202.58;1643022;87;21075;-61
2021/05/21 04:22:27;;;;;;;2.58;1.17;;;;;;;13.25;65.69;99204.30;1675008;85;20157;-60
2021/05/21 04:24:54;;;;;;;3.67;1.30;;;;;;;13.21;66.28;99209.32;1665312;85;21055;-60
2021/05/21 04:27:20;;;;;;;2.60;1.42;;;;;;;13.13;65.46;99202.63;1675909;85;21664;-60
2021/05/21 04:29:47;;;;;;;;;;;;;;;13.08;66.28;99203.22;1613974;87;21104;-61
2021/05/21 04:32:13;;;;;;;4.60;1.40;;;;;;;13.11;66.53;99204.05;1662160;86;20248;-60
2021/05/21 04:34:41;;;;;;;;;;;;;;;13.08;66.09;99198.57;1677693;85;21060;-61
2021/05/21 04:37:08;;;;;;;2.92;1.20;;;;;;;13.08;66.47;99204.04;1673488;84;20599;-61
2021/05/21 04:39:36;;;;;;;2.65;1.37;;;;;;;13.02;66.74;99205.25;1657330;85;21650;-60
2021/05/21 04:42:03;;;;;;;2.80;1.50;;;;;;;13.14;66.98;99214.38;1635353;86;21103;-61
2021/05/21 04:44:29;;;;;;;2.27;1.40;;;;;;;13.31;66.23;99209.94;1648959;85;21112;-61
2021/05/21 04:46:56;;;;;;;2.47;1.32;;;;;;;13.46;66.08;99217.83;1652578;86;21100;-61
2021/05/21 04:49:35;;;;;;;;;;;;;;;13.58;65.27;99220.62;1665289;85;21431;-61
2021/05/21 04:52:07;;;;;;;4.55;1.40;;;;;;;13.65;65.17;99227.87;1670007;85;20519;-61
2021/05/21 04:54:34;;;;;;;3.08;1.37;;;;;;;13.59;65.28;99226.36;1640735;86;21662;-61
2021/05/21 04:57:01;;;;;;;3.00;1.30;;;;;;;13.64;65.17;99236.63;1623936;87;21101;-61
2021/05/21 04:59:27;;;;;;;3.62;1.52;;;;;;;13.75;65.42;99243.52;1675915;85;21054;-61
2021/05/21 05:01:54;;;;;;;3.65;1.70;;;;;;;13.98;63.82;99238.14;1675011;85;21678;-61
2021/05/21 05:04:21;;;;;;;2.80;1.55;;;;;;;13.99;63.95;99240.59;1671141;85;21064;-60
2021/05/21 05:06:48;;;;;;;3.45;1.25;;;;;;;14.01;64.14;99247.92;1645323;85;21131;-62
2021/05/21 05:09:14;;;;;;;4.42;1.62;;;;;;;14.04;64.04;99245.12;1658152;85;21052;-61
2021/05/21 05:11:42;;;;;;;4.55;1.40;;;;;;;14.15;64.26;99251.45;1673829;85;21638;-61
2021/05/21 05:14:10;;;;;;;3.50;1.42;;;;;;;14.25;64.22;99245.75;1665987;85;21706;-61
2021/05/21 05:16:36;;;;;;;2.10;1.40;;;;;;;14.45;63.86;99246.68;1624473;86;21101;-60
2021/05/21 05:19:03;;;;;;;3.37;1.35;;;;;;;14.71;63.33;99249.64;1640873;86;21074;-60
2021/05/21 05:21:34;;;;;;;3.58;1.47;;;;;;;15.03;62.67;99261.47;1626112;87;21087;-61
2021/05/21 05:24:02;;;;;;;2.98;1.67;;;;;;;15.21;61.36;99261.84;1657138;85;21074;-60
2021/05/21 05:26:29;;;;;;;5.30;1.40;;;;;;;15.31;60.72;99264.31;1674254;85;21142;-60
2021/05/21 05:28:57;;;;;;;3.05;1.77;;;;;;;15.32;60.27;99264.57;1674391;85;21114;-60
2021/05/21 05:31:23;;;;;;;4.15;1.37;;;;;;;15.31;60.22;99265.12;1663177;86;21094;-61
2021/05/21 05:33:49;;;;;;;3.52;1.42;;;;;;;15.34;60.62;99274.09;1662440;86;21104;-61
2021/05/21 05:36:16;;;;;;;;;;;;;;;15.42;59.96;99280.75;1668185;85;21084;-60
2021/05/21 05:38:42;;;;;;;3.62;1.42;;;;;;;15.52;60.12;99276.98;1645452;87;20206;-60
2021/05/21 05:41:08;;;;;;;2.70;1.50;;;;;;;15.61;60.06;99273.16;1652490;84;21131;-60
2021/05/21 05:43:36;;;;;;;1.32;1.02;;;;;;;15.80;59.31;99272.92;1661516;86;21888;-60
2021/05/21 05:46:04;;;;;;;;;;;;;;;16.02;59.74;99278.30;1650122;84;21077;-60
2021/05/21 05:48:33;;;;;;;3.62;1.15;;;;;;;16.23;58.31;99272.45;1658570;86;20187;-60
2021/05/21 05:50:59;;;;;;;4.08;1.65;;;;;;;16.45;59.08;99279.77;1647073;86;21072;-60
2021/05/21 05:53:25;;;;;;;;;;;;;;;16.69;56.07;99272.45;1670112;86;21120;-60
2021/05/21 05:55:51;;;;;;;2.70;1.32;;;;;;;16.63;56.25;99273.77;1650957;85;20169;-60
2021/05/21 05:58:17;;;;;;;3.47;1.30;;;;;;;16.37;56.43;99277.81;1659638;86;21148;-60
2021/05/21 06:00:44;;;;;;;;;;;;;;;16.26;57.16;99273.78;1633534;88;21686;-60
2021/05/21 06:03:11;;;;;;;3.52;1.50;;;;;;;16.33;56.85;99271.38;1657491;86;20202;-59
2021/05/21 06:05:38;;;;;;;2.30;1.07;;;;;;;16.27;56.76;99263.02;1650784;86;21098;-60
2021/05/21 06:08:06;;;;;;;2.50;1.57;;;;;;;16.38;57.41;99267.89;1658633;85;21103;-60
2021/05/21 06:10:33;;;;;;;2.72;1.15;;;;;;;16.75;57.53;99273.38;1658298;86;21573;-61
2021/05/21 06:13:04;;;;;;;4.28;1.20;;;;;;;17.03;55.79;99268.34;1708777;82;21124;-60
2021/05/21 06:15:31;;;;;;;2.47;1.30;;;;;;;17.11;55.65;99279.88;1698965;84;21076;-59
2021/05/21 06:17:57;;;;;;;1.62;1.00;;;;;;;17.17;55.56;99278.59;1693128;82;21599;-59
2021/05/21 06:20:24;;;;;;;2.70;1.25;;;;;;;17.26;54.41;99284.06;1693569;84;21064;-58
2021/05/21 06:22:51;;;;;;;4.35;1.40;;;;;;;17.16;54.81;99282.47;1689928;84;21085;-59
2021/05/21 06:25:20;;;;;;;5.92;1.20;;;;;;;17.16;54.24;99282.47;1697456;82;21682;-59
2021/05/21 06:27:46;;;;;;;1.40;0.88;;;;;;;17.12;53.73;99271.88;1678282;82;21618;-60
2021/05/21 06:30:13;;;;;;;2.47;1.10;;;;;;;17.09;54.05;99278.03;1694336;82;21087;-61
2021/05/21 06:32:42;;;;;;;1.75;0.95;;;;;;;17.03;54.18;99275.22;1681544;84;21683;-61
2021/05/21 06:35:08;;;;;;;2.10;1.10;;;;;;;17.09;54.89;99276.66;1618816;87;21068;-61
2021/05/21 06:37:35;;;;;;;2.02;0.82;;;;;;;17.26;53.85;99283.50;1705029;84;21159;-60
2021/05/21 06:40:03;;;;;;;1.77;1.10;;;;;;;17.37;54.01;99288.09;1696952;83;21591;-60
2021/05/21 06:42:30;;;;;;;1.57;0.90;;;;;;;17.34;51.87;99290.94;1694508;82;21114;-59
2021/05/21 06:44:56;;;;;;;;;;;;;;;17.23;53.86;99283.34;1695863;84;21630;-60
2021/05/21 06:47:23;;;;;;;1.67;0.80;;;;;;;17.30;53.19;99291.91;1695065;82;20556;-60
2021/05/21 06:49:50;;;;;;;3.27;1.10;;;;;;;17.21;52.62;99292.50;1674092;85;21061;-60
2021/05/21 06:52:16;;;;;;;;;;;;;;;17.26;53.30;99285.44;1696331;82;21108;-60
2021/05/21 06:54:44;;;;;;;2.70;0.80;;;;;;;17.33;52.96;99287.94;1700252;84;20219;-64
2021/05/21 06:57:10;;;;;;;1.85;0.90;;;;;;;17.32;52.78;99283.56;1704851;82;21595;-61
2021/05/21 06:59:37;;;;;;;;;;;;;;;17.38;53.25;99286.41;1689374;84;21009;-62
2021/05/21 07:02:03;;;;;;;3.30;0.80;;;;;;;17.43;54.54;99290.13;1682370;84;20469;-63
2021/05/21 07:04:30;;;;;;;1.70;0.80;;;;;;;17.13;50.37;99287.81;1634216;88;21041;-62
2021/05/21 07:06:58;;;;;;;3.98;0.80;;;;;;;17.01;50.38;99293.16;1643227;87;21068;-63
2021/05/21 07:09:24;;;;;;;;;;;;;;;17.04;51.66;99292.53;1666189;86;21062;-63
2021/05/21 07:11:50;;;;;;;1.60;0.70;;;;;;;17.10;51.50;99292.59;1670432;86;20162;-62
2021/05/21 07:14:16;;;;;;;;;;;;;;;17.12;51.36;99285.63;1655413;86;21079;-63
2021/05/21 07:16:44;;;;;;;1.52;0.50;;;;;;;17.20;51.18;99288.12;1608865;88;20212;-63
2021/05/21 07:19:14;;;;;;;3.45;0.82;;;;;;;17.27;49.66;99287.06;1682648;84;21570;-63
2021/05/21 07:21:39;;;;;;;2.20;0.40;;;;;;;17.31;49.83;99289.41;1633903;87;21100;-62
2021/05/21 07:24:06;;;;;;;;;;;;;;;17.36;48.02;99283.16;1646206;86;21086;-63
2021/05/21 07:26:33;;;;;;;;;;;;;;;17.35;48.54;99290.38;1609509;88;20196;-62
2021/05/21 07:28:59;;;;;;;2.83;0.45;;;;;;;17.36;49.17;99296.91;1608980;88;20195;-63
2021/05/21 07:31:30;;;;;;;1.55;0.47;;;;;;;17.43;49.27;99293.66;1690115;82;21093;-62
2021/05/21 07:33:58;;;;;;;2.55;0.65;;;;;;;17.57;47.99;99303.92;1706644;84;21021;-62
2021/05/21 07:36:28;;;;;;;0.93;0.40;;;;;;;17.67;47.65;99299.47;1708674;82;21077;-63
2021/05/21 07:38:55;;;;;;;8.75;3.37;;;;;;;17.86;47.30;99299.05;1701482;84;21112;-62
2021/05/21 07:41:23;;;;;;;2.12;0.65;;;;;;;18.05;47.96;99300.03;1644391;86;21084;-62
2021/05/21 07:43:49;;;;;;;2.85;0.95;;;;;;;18.14;47.85;99304.95;1622122;88;21568;-63
2021/05/21 07:46:16;;;;;;;6.12;1.62;;;;;;;18.15;47.66;99296.91;1687825;84;21058;-63
2021/05/21 07:48:42;;;;;;;;;;;;;;;18.29;47.51;99304.36;1699972;84;21015;-62
2021/05/21 07:51:09;;;;;;;0.78;0.40;;;;;;;18.56;46.02;99297.59;1695622;84;20152;-63
2021/05/21 07:53:35;;;;;;;0.98;0.40;;;;;;;18.92;45.14;99308.81;1695370;84;21027;-63
2021/05/21 07:56:03;;;;;;;0.62;0.40;;;;;;;19.09;42.86;99307.87;1697293;84;21058;-63
2021/05/21 07:58:31;;;;;;;2.15;0.40;;;;;;;18.91;43.63;99309.98;1695673;84;21014;-63
2021/05/21 08:00:58;;;;;;;1.85;0.60;;;;;;;18.80;44.58;99303.25;1645914;84;21047;-63
2021/05/21 08:03:24;;;;;;;2.75;0.40;;;;;;;18.84;44.98;99308.33;1669665;84;21130;-63
2021/05/21 08:05:51;;;;;;;1.27;0.50;;;;;;;19.01;43.83;99298.53;1669405;86;21138;-63
2021/05/21 08:08:21;;;;;;;1.70;0.62;;;;;;;18.88;43.54;99306.52;1691967;84;21094;-63
2021/05/21 08:10:49;;;;;;;4.10;0.75;;;;;;;18.51;43.45;99308.80;1697349;84;21102;-64
2021/05/21 08:13:17;;;;;;;1.62;0.30;;;;;;;18.37;45.11;99299.37;1696738;84;21094;-63
2021/05/21 08:15:45;;;;;;;2.05;0.40;;;;;;;18.61;43.24;99298.76;1697206;84;21568;-63
2021/05/21 08:18:11;;;;;;;1.22;0.35;;;;;;;18.80;44.76;99299.11;1697552;84;21086;-63
2021/05/21 08:20:40;;;;;;;1.32;0.30;;;;;;;19.01;42.29;99309.56;1689920;84;21094;-63
2021/05/21 08:23:07;;;;;;;2.75;0.40;;;;;;;19.08;42.52;99300.17;1672806;84;21125;-62
2021/05/21 08:25:33;;;;;;;1.75;0.50;;;;;;;19.13;45.40;99305.47;1685744;84;21066;-63
2021/05/21 08:28:00;;;;;;;2.00;0.45;;;;;;;19.24;42.80;99300.33;1682073;84;21100;-62
2021/05/21 08:30:29;;;;;;;2.83;0.35;;;;;;;19.23;43.17;99302.88;1692479;83;21052;-63
2021/05/21 08:32:55;;;;;;;2.00;0.40;;;;;;;19.27;43.80;99305.20;1679027;84;21518;-61
2021/05/21 08:35:23;;;;;;;0.70;0.40;;;;;;;19.24;41.49;99301.71;1697298;84;21723;-61
2021/05/21 08:37:49;;;;;;;1.02;0.60;;;;;;;19.09;43.98;99309.26;1697406;84;21090;-63
2021/05/21 08:40:26;;;;;;;0.57;0.30;;;;;;;19.05;42.61;99302.80;1686196;84;21588;-63
2021/05/21 08:42:59;;;;;;;2.17;0.40;;;;;;;19.10;43.86;99306.14;1690309;84;21604;-62
2021/05/21 08:45:28;;;;;;;2.50;0.70;;;;;;;19.26;41.65;99301.63;1703830;84;21069;-62
2021/05/21 08:47:54;;;;;;;2.37;0.30;;;;;;;19.54;40.59;99301.86;1703886;83;21682;-62
2021/05/21 08:50:21;;;;;;;2.35;0.33;;;;;;;19.50;41.56;99309.77;1709061;84;21077;-62
2021/05/21 08:52:48;;;;;;;5.55;3.42;;;;;;;19.32;40.95;99309.92;1702679;82;21694;-62
2021/05/21 08:55:16;;;;;;;1.62;0.90;;;;;;;19.25;40.54;99302.77;1636090;87;21162;-62
2021/05/21 08:57:43;;;;;;;1.77;0.78;;;;;;;19.49;42.63;99294.34;1665549;86;21066;-62
2021/05/21 09:00:10;;;;;;;1.37;0.53;;;;;;;19.75;42.13;99295.69;1655465;85;21051;-62
2021/05/21 09:02:38;;;;;;;1.32;0.40;;;;;;;19.84;40.41;99295.00;1645248;86;21103;-62
2021/05/21 09:05:09;;;;;;;2.00;0.40;;;;;;;19.60;40.37;99299.67;1654937;86;21027;-62
2021/05/21 09:07:40;;;;;;;0.85;0.40;;;;;;;19.25;39.83;99301.39;1635853;88;21119;-62
2021/05/21 09:10:14;;;;;;;1.45;0.50;;;;;;;19.07;40.89;99306.83;1633913;86;21064;-62
2021/05/21 09:12:51;;;;;;;0.80;0.40;;;;;;;18.92;40.79;99308.03;1708840;82;21128;-62
2021/05/21 09:15:23;;;;;;;1.00;0.40;;;;;;;19.02;39.90;99311.19;1709043;83;21504;-61
2021/05/21 09:18:00;;;;;;;1.47;0.40;;;;;;;19.33;39.72;99307.41;1708865;82;21076;-62
2021/05/21 09:20:39;;;;;;;1.17;0.65;;;;;;;19.65;40.09;99309.94;1680782;85;21021;-62
2021/05/21 09:23:15;;;;;;;4.12;1.27;;;;;;;20.01;39.64;99314.72;1680528;85;21153;-62
2021/05/21 09:25:48;;;;;;;1.62;0.70;;;;;;;20.04;36.90;99330.60;1680354;85;21084;-62
2021/05/21 09:28:36;;;;;;;1.20;0.37;;;;;;;19.72;36.39;99317.09;1680495;85;21663;-62
2021/05/21 09:31:19;;;;;;;2.02;0.40;;;;;;;19.37;36.84;99317.19;1680435;85;21033;-62
2021/05/21 09:33:48;;;;;;;5.37;1.62;;;;;;;19.17;39.58;99318.82;1680372;85;21537;-62
2021/05/21 09:36:32;;;;;;;1.65;0.50;;;;;;;19.41;42.00;99323.68;1680598;85;21066;-62
2021/05/21 09:38:59;;;;;;;5.17;0.45;;;;;;;19.72;39.27;99321.80;1680595;85;21021;-62
2021/05/21 09:41:26;;;;;;;1.60;0.50;;;;;;;19.81;37.89;99320.55;1683339;84;21093;-62
2021/05/21 09:43:59;;;;;;;0.53;0.33;;;;;;;19.75;39.30;99327.45;1688112;85;20997;-62
2021/05/21 09:46:42;;;;;;;2.95;0.70;;;;;;;19.78;38.43;99320.42;1654858;87;21726;-62
2021/05/21 09:49:34;;;;;;;2.83;0.40;;;;;;;19.57;38.21;99324.64;1631239;86;21033;-61
2021/05/21 09:52:03;;;;;;;1.90;0.45;;;;;;;19.16;38.62;99323.31;1668453;84;21096;-62
2021/05/21 09:54:56;;;;;;;2.47;0.50;;;;;;;18.84;39.02;99317.98;1617757;86;21560;-63
2021/05/21 09:57:36;;;;;;;1.95;0.47;;;;;;;18.83;37.55;99320.50;1688122;85;21062;-62
2021/05/21 10:00:07;;;;;;;1.77;0.40;;;;;;;19.01;38.02;99313.70;1688257;85;21006;-61
2021/05/21 10:02:34;;;;;;;2.37;0.60;;;;;;;19.29;39.52;99315.31;1689935;83;21068;-62
2021/05/21 10:05:02;;;;;;;;;;;;;;;19.60;39.05;99315.67;1690913;83;21029;-63
2021/05/21 10:07:28;;;;;;;1.32;0.40;;;;;;;19.79;37.82;99318.72;1688166;85;20154;-62
2021/05/21 10:09:54;;;;;;;1.85;0.40;;;;;;;19.92;37.63;99311.81;1708329;83;21025;-62
2021/05/21 10:12:20;;;;;;;;;;;;;;;20.01;35.40;99313.91;1717216;82;21759;-62
2021/05/21 10:14:49;;;;;;;0.70;0.30;;;;;;;19.90;35.80;99314.13;1716452;83;20188;-63
2021/05/21 10:17:21;;;;;;;1.85;0.42;;;;;;;19.55;37.04;99305.43;1716735;82;21642;-62
2021/05/21 10:19:48;;;;;;;1.45;0.82;;;;;;;19.44;38.76;99309.20;1716829;83;21029;-62
2021/05/21 10:22:27;;;;;;;0.93;0.30;;;;;;;19.56;38.07;99317.49;1701425;83;21084;-62
2021/05/21 10:24:55;;;;;;;1.20;0.33;;;;;;;19.59;37.32;99314.64;1663730;85;21045;-62
2021/05/21 10:27:28;;;;;;;1.17;0.50;;;;;;;19.49;38.16;99308.96;1653171;85;21108;-62
2021/05/21 10:30:03;;;;;;;2.87;0.50;;;;;;;19.65;39.00;99308.56;1642980;87;21053;-63
2021/05/21 10:32:30;;;;;;;0.95;0.50;;;;;;;19.90;36.85;99308.03;1645324;86;21161;-62
2021/05/21 10:34:58;;;;;;;1.00;0.50;;;;;;;20.22;34.43;99303.55;1675645;85;21067;-61
2021/05/21 10:37:44;;;;;;;1.50;0.40;;;;;;;20.42;35.37;99296.30;1634776;86;21124;-61
2021/05/21 10:40:29;;;;;;;0.53;0.30;;;;;;;20.70;35.84;99309.63;1653529;86;21042;-60
2021/05/21 10:43:15;;;;;;;2.08;0.50;;;;;;;20.95;36.18;99300.11;1631389;86;21144;-61
2021/05/21 10:45:53;;;;;;;0.50;0.40;;;;;;;20.99;34.15;99302.98;1679362;84;21053;-62
2021/05/21 10:48:27;;;;;;;1.85;0.70;;;;;;;20.87;35.15;99291.97;1684149;82;21069;-61
2021/05/21 10:51:07;;;;;;;1.50;0.40;;;;;;;20.94;34.49;99290.19;1693637;84;21005;-61
2021/05/21 10:53:43;;;;;;;3.58;0.55;;;;;;;20.95;33.77;99298.73;1685264;84;21017;-61
2021/05/21 10:56:10;;;;;;;1.12;0.40;;;;;;;21.00;34.92;99289.38;1688702;82;21061;-61
2021/05/21 10:58:43;;;;;;;2.70;0.40;;;;;;;21.11;33.35;99284.42;1705685;84;21014;-61
2021/05/21 11:01:26;;;;;;;1.15;0.40;;;;;;;21.09;33.16;99281.16;1694132;84;21073;-62
2021/05/21 11:04:05;;;;;;;2.17;0.60;;;;;;;21.23;32.38;99292.66;1688700;84;21017;-61
2021/05/21 11:06:44;;;;;;;2.25;0.60;;;;;;;21.42;33.60;99288.41;1690593;84;21128;-62
2021/05/21 11:09:17;;;;;;;2.10;0.42;;;;;;;21.79;32.94;99288.41;1680958;84;21002;-62
2021/05/21 11:12:08;;;;;;;1.57;0.40;;;;;;;21.96;30.19;99292.84;1681306;84;21061;-61
2021/05/21 11:14:41;;;;;;;2.87;0.72;;;;;;;21.72;30.69;99288.22;1708657;84;21540;-61
2021/05/21 11:17:23;;;;;;;2.37;0.40;;;;;;;21.57;30.88;99293.19;1706518;82;21097;-61
2021/05/21 11:19:59;;;;;;;1.55;0.37;;;;;;;21.36;30.97;99295.38;1705882;83;21443;-61
2021/05/21 11:22:37;;;;;;;1.62;0.47;;;;;;;21.09;29.45;99296.38;1706724;84;21056;-61
2021/05/21 11:25:15;;;;;;;0.90;0.40;;;;;;;20.84;31.65;99301.18;1693216;84;21030;-61
2021/05/21 11:27:42;;;;;;;1.32;0.50;;;;;;;20.90;32.51;99297.61;1683954;84;21081;-60
2021/05/21 11:30:14;;;;;;;1.20;0.30;;;;;;;21.00;30.16;99301.27;1614704;88;21017;-60
2021/05/21 11:32:41;;;;;;;1.42;0.40;;;;;;;21.00;30.91;99299.87;1688981;84;21691;-61
2021/05/21 11:35:10;;;;;;;1.30;0.40;;;;;;;20.84;32.79;99303.14;1702406;83;21522;-60
2021/05/21 11:37:39;;;;;;;0.93;0.30;;;;;;;20.83;30.99;99295.41;1692989;82;21071;-62
2021/05/21 11:40:06;;;;;;;1.82;0.40;;;;;;;20.85;30.44;99295.88;1676285;84;21051;-61
2021/05/21 11:42:37;;;;;;;2.95;0.30;;;;;;;20.82;30.78;99284.71;1689964;84;21140;-61
2021/05/21 11:45:06;;;;;;;1.70;0.30;;;;;;;20.84;30.10;99297.61;1696296;84;21052;-61
2021/05/21 11:47:37;;;;;;;1.42;0.42;;;;;;;20.78;29.75;99297.05;1635168;87;21667;-62